This is the latest recevied weather packets stored in our database for station/object OK1FCB-1. If no packets are shown the sender has not sent any weather packets the latest 10 day(s).
| Time | Temp. | Humidity | Pressure | Rain* | Wind** | Luminosity | Snow |
|---|---|---|---|---|---|---|---|
| 1787887731 | 15° C | 70% | 1019.9 hPa | - | - | - | - |
| 1787885937 | 15° C | 69% | 1020.1 hPa | - | - | - | - |
| 1787884140 | 15° C | 69% | 1020 hPa | - | - | - | - |
| 1787883242 | 15° C | 68% | 1020.1 hPa | - | - | - | - |
| 1787882345 | 15° C | 68% | 1020.1 hPa | - | - | - | - |
| 1787881448 | 15° C | 67% | 1020.3 hPa | - | - | - | - |
| 1787880550 | 15° C | 67% | 1020.4 hPa | - | - | - | - |
| 1787879652 | 15° C | 66% | 1020.5 hPa | - | - | - | - |
| 1787878755 | 15° C | 66% | 1020.5 hPa | - | - | - | - |
| 1787875166 | 15.56° C | 64% | 1021 hPa | - | - | - | - |
| 1787873370 | 16.11° C | 63% | 1021.4 hPa | - | - | - | - |
| 1787872472 | 16.11° C | 64% | 1021.5 hPa | - | - | - | - |
| 1787870676 | 16.11° C | 64% | 1021.9 hPa | - | - | - | - |
| 1787866188 | 16.67° C | 61% | 1022.6 hPa | - | - | - | - |
| 1787865290 | 16.67° C | 60% | 1022.3 hPa | - | - | - | - |
| 1787864393 | 17.22° C | 59% | 1022.2 hPa | - | - | - | - |
| 1787861701 | 17.78° C | 57% | 1022.3 hPa | - | - | - | - |
| 1787860803 | 18.33° C | 56% | 1022.2 hPa | - | - | - | - |
| 1787859007 | 18.89° C | 55% | 1022.1 hPa | - | - | - | - |
| 1787858110 | 19.44° C | 54% | 1022.1 hPa | - | - | - | - |
| 1787855417 | 21.67° C | 50% | 1021.8 hPa | - | - | - | - |
| 1787854520 | 22.22° C | 49% | 1021.6 hPa | - | - | - | - |
| 1787852727 | 23.89° C | 46% | 1021.7 hPa | - | - | - | - |
| 1787850935 | 27.22° C | 42% | 1021.8 hPa | - | - | - | - |
| 1787850040 | 28.33° C | 40% | 1021.6 hPa | - | - | - | - |
* Rain since midnight (hover to see other rain measurements)
** Current wind speed in m/s (hover to see current wind gust speed)